sensor_id;sensor_type;location;lat;lon;timestamp;temperature;humidity
27224;DHT22;14965;50.660;13.226;2023-06-10T00:01:57;13.60;99.90
27224;DHT22;14965;50.660;13.226;2023-06-10T00:04:23;13.50;99.90
27224;DHT22;14965;50.660;13.226;2023-06-10T00:06:49;13.50;99.90
27224;DHT22;14965;50.660;13.226;2023-06-10T00:09:15;13.50;99.90
27224;DHT22;14965;50.660;13.226;2023-06-10T00:11:41;13.50;99.90
27224;DHT22;14965;50.660;13.226;2023-06-10T00:14:09;13.60;99.90
27224;DHT22;14965;50.660;13.226;2023-06-10T00:16:35;13.60;99.90
27224;DHT22;14965;50.660;13.226;2023-06-10T00:19:02;13.60;99.90
27224;DHT22;14965;50.660;13.226;2023-06-10T00:21:28;13.50;99.90
27224;DHT22;14965;50.660;13.226;2023-06-10T00:23:55;13.50;99.90
27224;DHT22;14965;50.660;13.226;2023-06-10T00:26:21;13.50;99.90
27224;DHT22;14965;50.660;13.226;2023-06-10T00:28:47;13.40;99.90
27224;DHT22;14965;50.660;13.226;2023-06-10T00:31:15;13.40;99.90
27224;DHT22;14965;50.660;13.226;2023-06-10T00:33:41;13.30;99.90
27224;DHT22;14965;50.660;13.226;2023-06-10T00:36:06;13.20;99.90
27224;DHT22;14965;50.660;13.226;2023-06-10T00:38:32;13.20;99.90
27224;DHT22;14965;50.660;13.226;2023-06-10T00:40:58;13.20;99.90
27224;DHT22;14965;50.660;13.226;2023-06-10T00:43:24;13.10;99.90
27224;DHT22;14965;50.660;13.226;2023-06-10T00:45:51;13.10;99.90
27224;DHT22;14965;50.660;13.226;2023-06-10T00:48:19;13.10;99.90
27224;DHT22;14965;50.660;13.226;2023-06-10T00:50:45;13.00;99.90
27224;DHT22;14965;50.660;13.226;2023-06-10T00:53:12;13.00;99.90
27224;DHT22;14965;50.660;13.226;2023-06-10T00:55:38;13.00;99.90
27224;DHT22;14965;50.660;13.226;2023-06-10T00:58:06;13.10;99.90
27224;DHT22;14965;50.660;13.226;2023-06-10T01:00:32;13.10;99.90
27224;DHT22;14965;50.660;13.226;2023-06-10T01:02:58;13.00;99.90
27224;DHT22;14965;50.660;13.226;2023-06-10T01:05:26;13.10;99.90
27224;DHT22;14965;50.660;13.226;2023-06-10T01:07:59;13.00;99.90
27224;DHT22;14965;50.660;13.226;2023-06-10T01:10:32;13.00;99.90
27224;DHT22;14965;50.660;13.226;2023-06-10T01:13:02;13.00;99.90
27224;DHT22;14965;50.660;13.226;2023-06-10T01:15:31;12.90;99.90
27224;DHT22;14965;50.660;13.226;2023-06-10T01:17:58;12.90;99.90
27224;DHT22;14965;50.660;13.226;2023-06-10T01:20:28;12.90;99.90
27224;DHT22;14965;50.660;13.226;2023-06-10T01:22:57;12.80;99.90
27224;DHT22;14965;50.660;13.226;2023-06-10T01:25:25;12.80;99.90
27224;DHT22;14965;50.660;13.226;2023-06-10T01:27:52;12.80;99.90
27224;DHT22;14965;50.660;13.226;2023-06-10T01:30:22;12.80;99.90
27224;DHT22;14965;50.660;13.226;2023-06-10T01:32:53;12.70;99.90
27224;DHT22;14965;50.660;13.226;2023-06-10T01:35:20;12.70;99.90
27224;DHT22;14965;50.660;13.226;2023-06-10T01:37:50;12.70;99.90
27224;DHT22;14965;50.660;13.226;2023-06-10T01:40:21;12.70;99.90
27224;DHT22;14965;50.660;13.226;2023-06-10T01:42:48;12.70;99.90
27224;DHT22;14965;50.660;13.226;2023-06-10T01:45:14;12.70;99.90
27224;DHT22;14965;50.660;13.226;2023-06-10T01:47:40;12.70;99.90
27224;DHT22;14965;50.660;13.226;2023-06-10T01:50:07;12.50;99.90
27224;DHT22;14965;50.660;13.226;2023-06-10T01:52:33;12.50;99.90
27224;DHT22;14965;50.660;13.226;2023-06-10T01:54:59;12.40;99.90
27224;DHT22;14965;50.660;13.226;2023-06-10T01:57:26;12.40;99.90
27224;DHT22;14965;50.660;13.226;2023-06-10T01:59:52;12.40;99.90
27224;DHT22;14965;50.660;13.226;2023-06-10T02:02:18;12.40;99.90
27224;DHT22;14965;50.660;13.226;2023-06-10T02:04:44;12.40;99.90
27224;DHT22;14965;50.660;13.226;2023-06-10T02:07:09;12.40;99.90
27224;DHT22;14965;50.660;13.226;2023-06-10T02:09:35;12.40;99.90
27224;DHT22;14965;50.660;13.226;2023-06-10T02:12:02;12.40;99.90
27224;DHT22;14965;50.660;13.226;2023-06-10T02:14:30;12.30;99.90
27224;DHT22;14965;50.660;13.226;2023-06-10T02:16:57;12.20;99.90
27224;DHT22;14965;50.660;13.226;2023-06-10T02:19:23;12.20;99.90
27224;DHT22;14965;50.660;13.226;2023-06-10T02:21:49;12.30;99.90
27224;DHT22;14965;50.660;13.226;2023-06-10T02:24:15;12.20;99.90
27224;DHT22;14965;50.660;13.226;2023-06-10T02:26:41;12.30;99.90
27224;DHT22;14965;50.660;13.226;2023-06-10T02:29:06;12.20;99.90
27224;DHT22;14965;50.660;13.226;2023-06-10T02:31:34;12.20;99.90
27224;DHT22;14965;50.660;13.226;2023-06-10T02:34:00;12.20;99.90
27224;DHT22;14965;50.660;13.226;2023-06-10T02:36:25;12.20;99.90
27224;DHT22;14965;50.660;13.226;2023-06-10T02:38:51;12.20;99.90
27224;DHT22;14965;50.660;13.226;2023-06-10T02:41:17;12.20;99.90
27224;DHT22;14965;50.660;13.226;2023-06-10T02:43:43;12.10;99.90
27224;DHT22;14965;50.660;13.226;2023-06-10T02:46:09;12.10;99.90
27224;DHT22;14965;50.660;13.226;2023-06-10T02:48:42;12.10;99.90
27224;DHT22;14965;50.660;13.226;2023-06-10T02:51:08;12.10;99.90
27224;DHT22;14965;50.660;13.226;2023-06-10T02:53:34;12.10;99.90
27224;DHT22;14965;50.660;13.226;2023-06-10T02:56:00;12.10;99.90
27224;DHT22;14965;50.660;13.226;2023-06-10T02:58:26;12.10;99.90
27224;DHT22;14965;50.660;13.226;2023-06-10T03:00:52;12.10;99.90
27224;DHT22;14965;50.660;13.226;2023-06-10T03:03:18;12.00;99.90
27224;DHT22;14965;50.660;13.226;2023-06-10T03:05:45;12.00;99.90
27224;DHT22;14965;50.660;13.226;2023-06-10T03:08:12;12.00;99.90
27224;DHT22;14965;50.660;13.226;2023-06-10T03:10:37;11.90;99.90
27224;DHT22;14965;50.660;13.226;2023-06-10T03:13:03;11.90;99.90
27224;DHT22;14965;50.660;13.226;2023-06-10T03:15:29;11.90;99.90
27224;DHT22;14965;50.660;13.226;2023-06-10T03:17:55;11.90;99.90
27224;DHT22;14965;50.660;13.226;2023-06-10T03:20:21;11.90;99.90
27224;DHT22;14965;50.660;13.226;2023-06-10T03:22:48;12.00;99.90
27224;DHT22;14965;50.660;13.226;2023-06-10T03:25:14;12.00;99.90
27224;DHT22;14965;50.660;13.226;2023-06-10T03:27:41;12.00;99.90
27224;DHT22;14965;50.660;13.226;2023-06-10T03:30:08;12.10;99.90
27224;DHT22;14965;50.660;13.226;2023-06-10T03:32:35;12.20;99.90
27224;DHT22;14965;50.660;13.226;2023-06-10T03:35:01;12.20;99.90
27224;DHT22;14965;50.660;13.226;2023-06-10T03:37:27;12.30;99.90
27224;DHT22;14965;50.660;13.226;2023-06-10T03:39:55;12.30;99.90
27224;DHT22;14965;50.660;13.226;2023-06-10T03:42:20;12.30;99.90
27224;DHT22;14965;50.660;13.226;2023-06-10T03:44:46;12.50;99.90
27224;DHT22;14965;50.660;13.226;2023-06-10T03:47:12;12.60;99.90
27224;DHT22;14965;50.660;13.226;2023-06-10T03:49:38;12.70;99.90
27224;DHT22;14965;50.660;13.226;2023-06-10T03:52:04;12.80;99.90
27224;DHT22;14965;50.660;13.226;2023-06-10T03:54:31;12.90;99.90
27224;DHT22;14965;50.660;13.226;2023-06-10T03:56:58;13.10;99.90
27224;DHT22;14965;50.660;13.226;2023-06-10T03:59:24;13.30;99.90
27224;DHT22;14965;50.660;13.226;2023-06-10T04:01:49;13.50;99.90
27224;DHT22;14965;50.660;13.226;2023-06-10T04:04:15;13.60;99.90
27224;DHT22;14965;50.660;13.226;2023-06-10T04:06:41;13.80;99.90
27224;DHT22;14965;50.660;13.226;2023-06-10T04:09:07;13.90;99.90
27224;DHT22;14965;50.660;13.226;2023-06-10T04:11:33;14.00;99.90
27224;DHT22;14965;50.660;13.226;2023-06-10T04:14:00;14.10;99.90
27224;DHT22;14965;50.660;13.226;2023-06-10T04:16:26;14.20;99.90
27224;DHT22;14965;50.660;13.226;2023-06-10T04:18:52;14.30;99.90
27224;DHT22;14965;50.660;13.226;2023-06-10T04:21:18;14.30;99.90
27224;DHT22;14965;50.660;13.226;2023-06-10T04:23:44;14.40;99.90
27224;DHT22;14965;50.660;13.226;2023-06-10T04:26:10;14.70;99.90
27224;DHT22;14965;50.660;13.226;2023-06-10T04:28:36;15.50;99.90
27224;DHT22;14965;50.660;13.226;2023-06-10T04:31:03;16.90;99.90
27224;DHT22;14965;50.660;13.226;2023-06-10T04:33:29;18.30;99.90
27224;DHT22;14965;50.660;13.226;2023-06-10T04:35:55;19.70;99.90
27224;DHT22;14965;50.660;13.226;2023-06-10T04:38:21;21.00;99.90
27224;DHT22;14965;50.660;13.226;2023-06-10T04:40:47;22.10;99.90
27224;DHT22;14965;50.660;13.226;2023-06-10T04:43:13;22.90;99.90
27224;DHT22;14965;50.660;13.226;2023-06-10T04:45:39;23.50;99.90
27224;DHT22;14965;50.660;13.226;2023-06-10T04:48:06;24.00;99.90
27224;DHT22;14965;50.660;13.226;2023-06-10T04:50:32;24.40;99.90
27224;DHT22;14965;50.660;13.226;2023-06-10T04:52:58;24.60;99.90
27224;DHT22;14965;50.660;13.226;2023-06-10T04:55:24;24.80;99.90
27224;DHT22;14965;50.660;13.226;2023-06-10T04:57:50;25.00;99.90
27224;DHT22;14965;50.660;13.226;2023-06-10T05:00:16;25.40;99.90
27224;DHT22;14965;50.660;13.226;2023-06-10T05:02:42;25.70;99.40
27224;DHT22;14965;50.660;13.226;2023-06-10T05:05:10;26.00;98.40
27224;DHT22;14965;50.660;13.226;2023-06-10T05:07:36;26.10;97.60
27224;DHT22;14965;50.660;13.226;2023-06-10T05:10:02;26.20;97.90
27224;DHT22;14965;50.660;13.226;2023-06-10T05:12:28;26.50;96.20
27224;DHT22;14965;50.660;13.226;2023-06-10T05:14:54;26.70;96.20
27224;DHT22;14965;50.660;13.226;2023-06-10T05:17:20;26.80;94.90
27224;DHT22;14965;50.660;13.226;2023-06-10T05:19:46;27.00;93.90
27224;DHT22;14965;50.660;13.226;2023-06-10T05:22:13;27.20;94.20
27224;DHT22;14965;50.660;13.226;2023-06-10T05:24:39;27.30;93.30
27224;DHT22;14965;50.660;13.226;2023-06-10T05:27:05;27.40;93.20
27224;DHT22;14965;50.660;13.226;2023-06-10T05:29:31;27.40;92.00
27224;DHT22;14965;50.660;13.226;2023-06-10T05:31:57;27.00;92.50
27224;DHT22;14965;50.660;13.226;2023-06-10T05:34:22;27.00;92.80
27224;DHT22;14965;50.660;13.226;2023-06-10T05:36:48;27.10;93.00
27224;DHT22;14965;50.660;13.226;2023-06-10T05:39:15;26.60;93.10
27224;DHT22;14965;50.660;13.226;2023-06-10T05:41:41;27.00;93.10
27224;DHT22;14965;50.660;13.226;2023-06-10T05:44:07;27.20;92.60
27224;DHT22;14965;50.660;13.226;2023-06-10T05:46:33;27.80;91.90
27224;DHT22;14965;50.660;13.226;2023-06-10T05:48:59;27.60;90.70
27224;DHT22;14965;50.660;13.226;2023-06-10T05:51:25;27.50;90.60
27224;DHT22;14965;50.660;13.226;2023-06-10T05:53:51;27.20;91.70
27224;DHT22;14965;50.660;13.226;2023-06-10T05:56:18;27.40;92.20
27224;DHT22;14965;50.660;13.226;2023-06-10T05:58:44;27.40;91.30
27224;DHT22;14965;50.660;13.226;2023-06-10T06:01:10;27.30;91.00
27224;DHT22;14965;50.660;13.226;2023-06-10T06:03:36;26.90;90.90
27224;DHT22;14965;50.660;13.226;2023-06-10T06:06:02;26.80;91.20
27224;DHT22;14965;50.660;13.226;2023-06-10T06:08:28;26.40;91.50
27224;DHT22;14965;50.660;13.226;2023-06-10T06:10:54;26.20;92.60
27224;DHT22;14965;50.660;13.226;2023-06-10T06:13:21;26.10;92.50
27224;DHT22;14965;50.660;13.226;2023-06-10T06:15:48;25.90;93.20
27224;DHT22;14965;50.660;13.226;2023-06-10T06:18:14;26.10;93.50
27224;DHT22;14965;50.660;13.226;2023-06-10T06:20:40;26.30;93.30
27224;DHT22;14965;50.660;13.226;2023-06-10T06:23:06;26.10;93.10
27224;DHT22;14965;50.660;13.226;2023-06-10T06:25:31;26.30;93.30
27224;DHT22;14965;50.660;13.226;2023-06-10T06:27:57;26.00;93.20
27224;DHT22;14965;50.660;13.226;2023-06-10T06:30:24;25.70;93.30
27224;DHT22;14965;50.660;13.226;2023-06-10T06:32:50;25.40;94.40
27224;DHT22;14965;50.660;13.226;2023-06-10T06:35:16;25.20;94.40
27224;DHT22;14965;50.660;13.226;2023-06-10T06:37:42;25.10;95.30
27224;DHT22;14965;50.660;13.226;2023-06-10T06:40:09;25.20;95.40
27224;DHT22;14965;50.660;13.226;2023-06-10T06:42:35;25.10;95.50
27224;DHT22;14965;50.660;13.226;2023-06-10T06:45:01;24.50;96.50
27224;DHT22;14965;50.660;13.226;2023-06-10T06:47:29;24.40;96.00
27224;DHT22;14965;50.660;13.226;2023-06-10T06:49:54;24.30;96.50
27224;DHT22;14965;50.660;13.226;2023-06-10T06:52:20;24.10;97.40
27224;DHT22;14965;50.660;13.226;2023-06-10T06:54:46;23.80;98.00
27224;DHT22;14965;50.660;13.226;2023-06-10T06:57:12;23.80;98.30
27224;DHT22;14965;50.660;13.226;2023-06-10T06:59:38;23.90;98.00
27224;DHT22;14965;50.660;13.226;2023-06-10T07:02:04;23.70;99.90
27224;DHT22;14965;50.660;13.226;2023-06-10T07:04:32;23.80;98.60
27224;DHT22;14965;50.660;13.226;2023-06-10T07:06:58;23.70;98.70
27224;DHT22;14965;50.660;13.226;2023-06-10T07:09:23;23.70;98.90
27224;DHT22;14965;50.660;13.226;2023-06-10T07:11:49;23.80;99.30
27224;DHT22;14965;50.660;13.226;2023-06-10T07:14:15;23.80;99.10
27224;DHT22;14965;50.660;13.226;2023-06-10T07:16:41;23.70;99.90
27224;DHT22;14965;50.660;13.226;2023-06-10T07:19:07;23.80;99.50
27224;DHT22;14965;50.660;13.226;2023-06-10T07:21:34;24.00;99.40
27224;DHT22;14965;50.660;13.226;2023-06-10T07:24:00;24.00;99.20
27224;DHT22;14965;50.660;13.226;2023-06-10T07:26:26;23.80;98.80
27224;DHT22;14965;50.660;13.226;2023-06-10T07:28:52;23.20;99.20
27224;DHT22;14965;50.660;13.226;2023-06-10T07:31:18;23.00;99.90
27224;DHT22;14965;50.660;13.226;2023-06-10T07:33:44;22.90;99.90
27224;DHT22;14965;50.660;13.226;2023-06-10T07:36:10;22.80;99.90
27224;DHT22;14965;50.660;13.226;2023-06-10T07:38:37;22.70;99.90
27224;DHT22;14965;50.660;13.226;2023-06-10T07:41:03;22.60;99.90
27224;DHT22;14965;50.660;13.226;2023-06-10T07:43:29;22.40;99.90
27224;DHT22;14965;50.660;13.226;2023-06-10T07:45:55;22.30;99.90
27224;DHT22;14965;50.660;13.226;2023-06-10T07:48:21;22.20;99.90
27224;DHT22;14965;50.660;13.226;2023-06-10T07:50:47;22.10;99.90
27224;DHT22;14965;50.660;13.226;2023-06-10T07:53:13;22.00;99.90
27224;DHT22;14965;50.660;13.226;2023-06-10T07:55:40;21.80;99.90
27224;DHT22;14965;50.660;13.226;2023-06-10T07:58:06;21.70;99.90
27224;DHT22;14965;50.660;13.226;2023-06-10T08:00:31;21.50;99.90
27224;DHT22;14965;50.660;13.226;2023-06-10T08:02:57;21.50;99.90
27224;DHT22;14965;50.660;13.226;2023-06-10T08:05:23;21.60;99.90
27224;DHT22;14965;50.660;13.226;2023-06-10T08:07:49;21.60;99.90
27224;DHT22;14965;50.660;13.226;2023-06-10T08:10:15;21.50;99.90
27224;DHT22;14965;50.660;13.226;2023-06-10T08:12:42;21.40;99.90
27224;DHT22;14965;50.660;13.226;2023-06-10T08:15:09;21.20;99.90
27224;DHT22;14965;50.660;13.226;2023-06-10T08:17:36;21.20;99.90
27224;DHT22;14965;50.660;13.226;2023-06-10T08:20:03;21.30;99.90
27224;DHT22;14965;50.660;13.226;2023-06-10T08:22:29;21.50;99.90
27224;DHT22;14965;50.660;13.226;2023-06-10T08:24:55;21.30;99.90
27224;DHT22;14965;50.660;13.226;2023-06-10T08:27:21;21.30;99.90
27224;DHT22;14965;50.660;13.226;2023-06-10T08:29:48;21.40;99.90
27224;DHT22;14965;50.660;13.226;2023-06-10T08:32:14;21.50;99.90
27224;DHT22;14965;50.660;13.226;2023-06-10T08:34:40;21.40;99.90
27224;DHT22;14965;50.660;13.226;2023-06-10T08:37:06;21.40;99.90
27224;DHT22;14965;50.660;13.226;2023-06-10T08:39:32;21.60;99.90
27224;DHT22;14965;50.660;13.226;2023-06-10T08:42:10;21.60;99.90
27224;DHT22;14965;50.660;13.226;2023-06-10T08:44:40;21.50;99.90
27224;DHT22;14965;50.660;13.226;2023-06-10T08:47:13;21.50;99.90
27224;DHT22;14965;50.660;13.226;2023-06-10T08:49:43;21.50;99.90
27224;DHT22;14965;50.660;13.226;2023-06-10T08:52:15;21.50;99.90
27224;DHT22;14965;50.660;13.226;2023-06-10T08:54:43;21.50;99.90
27224;DHT22;14965;50.660;13.226;2023-06-10T08:57:15;21.60;99.90
27224;DHT22;14965;50.660;13.226;2023-06-10T08:59:43;21.50;99.90
27224;DHT22;14965;50.660;13.226;2023-06-10T09:02:11;21.40;99.90
27224;DHT22;14965;50.660;13.226;2023-06-10T09:04:38;21.10;99.90
27224;DHT22;14965;50.660;13.226;2023-06-10T09:07:05;20.90;99.90
27224;DHT22;14965;50.660;13.226;2023-06-10T09:09:32;20.80;99.90
27224;DHT22;14965;50.660;13.226;2023-06-10T09:12:00;20.40;99.90
27224;DHT22;14965;50.660;13.226;2023-06-10T09:14:26;20.10;99.90
27224;DHT22;14965;50.660;13.226;2023-06-10T09:16:52;19.80;99.90
27224;DHT22;14965;50.660;13.226;2023-06-10T09:19:20;19.70;99.90
27224;DHT22;14965;50.660;13.226;2023-06-10T09:21:46;19.50;99.90
27224;DHT22;14965;50.660;13.226;2023-06-10T09:24:12;19.40;99.90
27224;DHT22;14965;50.660;13.226;2023-06-10T09:26:38;19.40;99.90
27224;DHT22;14965;50.660;13.226;2023-06-10T09:29:05;19.50;99.90
27224;DHT22;14965;50.660;13.226;2023-06-10T09:31:35;19.70;99.90
27224;DHT22;14965;50.660;13.226;2023-06-10T09:34:07;20.00;99.90
27224;DHT22;14965;50.660;13.226;2023-06-10T09:36:35;20.20;99.90
27224;DHT22;14965;50.660;13.226;2023-06-10T09:39:02;20.50;99.90
27224;DHT22;14965;50.660;13.226;2023-06-10T09:41:35;20.50;99.90
27224;DHT22;14965;50.660;13.226;2023-06-10T09:44:11;20.70;99.90
27224;DHT22;14965;50.660;13.226;2023-06-10T09:46:38;21.10;99.90
27224;DHT22;14965;50.660;13.226;2023-06-10T09:49:04;21.30;99.90
27224;DHT22;14965;50.660;13.226;2023-06-10T09:51:30;21.60;99.90
27224;DHT22;14965;50.660;13.226;2023-06-10T09:53:59;21.90;99.90
27224;DHT22;14965;50.660;13.226;2023-06-10T09:56:33;22.10;99.90
27224;DHT22;14965;50.660;13.226;2023-06-10T09:58:59;22.20;99.90
27224;DHT22;14965;50.660;13.226;2023-06-10T10:01:25;22.30;99.90
27224;DHT22;14965;50.660;13.226;2023-06-10T10:03:51;22.60;99.90
27224;DHT22;14965;50.660;13.226;2023-06-10T10:06:18;22.80;99.90
27224;DHT22;14965;50.660;13.226;2023-06-10T10:08:48;23.20;99.90
27224;DHT22;14965;50.660;13.226;2023-06-10T10:11:17;23.50;99.90
27224;DHT22;14965;50.660;13.226;2023-06-10T10:13:45;23.70;99.90
27224;DHT22;14965;50.660;13.226;2023-06-10T10:16:16;23.70;99.90
27224;DHT22;14965;50.660;13.226;2023-06-10T10:18:46;23.30;99.90
27224;DHT22;14965;50.660;13.226;2023-06-10T10:21:22;23.10;99.90
27224;DHT22;14965;50.660;13.226;2023-06-10T10:23:53;22.80;99.90
27224;DHT22;14965;50.660;13.226;2023-06-10T10:26:30;22.40;99.90
27224;DHT22;14965;50.660;13.226;2023-06-10T10:29:05;22.10;99.90
27224;DHT22;14965;50.660;13.226;2023-06-10T10:31:36;22.00;99.90
27224;DHT22;14965;50.660;13.226;2023-06-10T10:34:07;21.80;99.90
27224;DHT22;14965;50.660;13.226;2023-06-10T10:36:36;21.70;99.90
27224;DHT22;14965;50.660;13.226;2023-06-10T10:39:04;21.50;99.90
27224;DHT22;14965;50.660;13.226;2023-06-10T10:41:32;21.50;99.90
27224;DHT22;14965;50.660;13.226;2023-06-10T10:43:59;21.20;99.90
27224;DHT22;14965;50.660;13.226;2023-06-10T10:46:26;21.10;99.90
27224;DHT22;14965;50.660;13.226;2023-06-10T10:48:53;21.00;99.90
27224;DHT22;14965;50.660;13.226;2023-06-10T10:51:22;21.10;99.90
27224;DHT22;14965;50.660;13.226;2023-06-10T10:54:10;21.00;99.90
27224;DHT22;14965;50.660;13.226;2023-06-10T10:56:38;20.90;99.90
27224;DHT22;14965;50.660;13.226;2023-06-10T10:59:04;20.80;99.90
27224;DHT22;14965;50.660;13.226;2023-06-10T11:01:40;20.90;99.90
27224;DHT22;14965;50.660;13.226;2023-06-10T11:04:07;21.20;99.90
27224;DHT22;14965;50.660;13.226;2023-06-10T11:06:33;21.50;99.90
27224;DHT22;14965;50.660;13.226;2023-06-10T11:08:59;21.40;99.90
27224;DHT22;14965;50.660;13.226;2023-06-10T11:11:27;21.40;99.90
27224;DHT22;14965;50.660;13.226;2023-06-10T11:14:07;21.40;99.90
27224;DHT22;14965;50.660;13.226;2023-06-10T11:16:38;21.30;99.90
27224;DHT22;14965;50.660;13.226;2023-06-10T11:19:05;21.40;99.90
27224;DHT22;14965;50.660;13.226;2023-06-10T11:21:31;21.30;99.90
27224;DHT22;14965;50.660;13.226;2023-06-10T11:23:58;21.30;99.90
27224;DHT22;14965;50.660;13.226;2023-06-10T11:26:30;21.50;99.90
27224;DHT22;14965;50.660;13.226;2023-06-10T11:29:19;21.60;99.90
27224;DHT22;14965;50.660;13.226;2023-06-10T11:31:48;21.90;99.90
27224;DHT22;14965;50.660;13.226;2023-06-10T11:34:21;22.20;99.90
27224;DHT22;14965;50.660;13.226;2023-06-10T11:36:48;22.20;99.90
27224;DHT22;14965;50.660;13.226;2023-06-10T11:39:14;22.20;99.90
27224;DHT22;14965;50.660;13.226;2023-06-10T11:41:40;22.30;99.90
27224;DHT22;14965;50.660;13.226;2023-06-10T11:44:11;22.40;99.90
27224;DHT22;14965;50.660;13.226;2023-06-10T11:46:40;22.60;99.90
27224;DHT22;14965;50.660;13.226;2023-06-10T11:49:06;22.70;99.90
27224;DHT22;14965;50.660;13.226;2023-06-10T11:51:34;22.80;99.90
27224;DHT22;14965;50.660;13.226;2023-06-10T11:54:01;22.70;99.90
27224;DHT22;14965;50.660;13.226;2023-06-10T11:56:28;22.60;99.90
27224;DHT22;14965;50.660;13.226;2023-06-10T11:58:57;22.30;99.90
27224;DHT22;14965;50.660;13.226;2023-06-10T12:01:25;22.30;99.90
27224;DHT22;14965;50.660;13.226;2023-06-10T12:03:58;22.30;99.90
27224;DHT22;14965;50.660;13.226;2023-06-10T12:06:25;22.40;99.90
27224;DHT22;14965;50.660;13.226;2023-06-10T12:08:52;22.60;99.90
27224;DHT22;14965;50.660;13.226;2023-06-10T12:11:19;22.80;99.90
27224;DHT22;14965;50.660;13.226;2023-06-10T12:13:46;22.90;99.90
27224;DHT22;14965;50.660;13.226;2023-06-10T12:16:12;23.00;99.90
27224;DHT22;14965;50.660;13.226;2023-06-10T12:18:38;23.10;99.90
27224;DHT22;14965;50.660;13.226;2023-06-10T12:21:17;23.20;99.90
27224;DHT22;14965;50.660;13.226;2023-06-10T12:24:05;23.20;99.90
27224;DHT22;14965;50.660;13.226;2023-06-10T12:26:36;22.90;99.90
27224;DHT22;14965;50.660;13.226;2023-06-10T12:29:15;22.70;99.90
27224;DHT22;14965;50.660;13.226;2023-06-10T12:31:59;22.40;99.90
27224;DHT22;14965;50.660;13.226;2023-06-10T12:34:31;22.30;99.90
27224;DHT22;14965;50.660;13.226;2023-06-10T12:37:04;22.20;99.90
27224;DHT22;14965;50.660;13.226;2023-06-10T12:39:32;22.40;99.90
27224;DHT22;14965;50.660;13.226;2023-06-10T12:41:59;22.60;99.90
27224;DHT22;14965;50.660;13.226;2023-06-10T12:44:32;22.70;99.90
27224;DHT22;14965;50.660;13.226;2023-06-10T12:46:59;22.70;99.90
27224;DHT22;14965;50.660;13.226;2023-06-10T12:49:25;22.50;99.90
27224;DHT22;14965;50.660;13.226;2023-06-10T12:51:52;22.40;99.90
27224;DHT22;14965;50.660;13.226;2023-06-10T12:54:19;22.40;99.90
27224;DHT22;14965;50.660;13.226;2023-06-10T12:56:45;22.40;99.90
27224;DHT22;14965;50.660;13.226;2023-06-10T12:59:11;22.40;99.90
27224;DHT22;14965;50.660;13.226;2023-06-10T13:01:37;22.60;99.90
27224;DHT22;14965;50.660;13.226;2023-06-10T13:04:04;22.90;99.90
27224;DHT22;14965;50.660;13.226;2023-06-10T13:06:30;23.00;99.90
27224;DHT22;14965;50.660;13.226;2023-06-10T13:08:56;22.90;99.90
27224;DHT22;14965;50.660;13.226;2023-06-10T13:11:23;22.70;99.90
27224;DHT22;14965;50.660;13.226;2023-06-10T13:13:49;22.40;99.90
27224;DHT22;14965;50.660;13.226;2023-06-10T13:16:15;22.30;99.90
27224;DHT22;14965;50.660;13.226;2023-06-10T13:18:41;22.20;99.90
27224;DHT22;14965;50.660;13.226;2023-06-10T13:21:07;22.30;99.90
27224;DHT22;14965;50.660;13.226;2023-06-10T13:23:33;22.50;99.50
27224;DHT22;14965;50.660;13.226;2023-06-10T13:25:58;22.60;99.90
27224;DHT22;14965;50.660;13.226;2023-06-10T13:28:26;22.80;98.80
27224;DHT22;14965;50.660;13.226;2023-06-10T13:30:52;23.10;99.00
27224;DHT22;14965;50.660;13.226;2023-06-10T13:33:17;23.20;99.30
27224;DHT22;14965;50.660;13.226;2023-06-10T13:35:43;23.20;98.80
27224;DHT22;14965;50.660;13.226;2023-06-10T13:38:09;23.10;98.40
27224;DHT22;14965;50.660;13.226;2023-06-10T13:40:35;22.90;99.40
27224;DHT22;14965;50.660;13.226;2023-06-10T13:43:01;22.70;99.40
27224;DHT22;14965;50.660;13.226;2023-06-10T13:45:28;22.50;99.00
27224;DHT22;14965;50.660;13.226;2023-06-10T13:47:54;22.30;99.00
27224;DHT22;14965;50.660;13.226;2023-06-10T13:50:20;22.20;99.40
27224;DHT22;14965;50.660;13.226;2023-06-10T13:52:46;22.00;99.90
27224;DHT22;14965;50.660;13.226;2023-06-10T13:55:12;22.00;99.80
27224;DHT22;14965;50.660;13.226;2023-06-10T13:57:38;22.00;99.90
27224;DHT22;14965;50.660;13.226;2023-06-10T14:00:05;22.00;99.70
27224;DHT22;14965;50.660;13.226;2023-06-10T14:02:34;21.90;98.80
27224;DHT22;14965;50.660;13.226;2023-06-10T14:04:59;21.90;99.10
27224;DHT22;14965;50.660;13.226;2023-06-10T14:07:29;22.00;99.80
27224;DHT22;14965;50.660;13.226;2023-06-10T14:09:55;22.10;98.00
27224;DHT22;14965;50.660;13.226;2023-06-10T14:12:21;22.20;97.90
27224;DHT22;14965;50.660;13.226;2023-06-10T14:14:46;22.40;97.60
27224;DHT22;14965;50.660;13.226;2023-06-10T14:17:13;22.70;97.60
27224;DHT22;14965;50.660;13.226;2023-06-10T14:19:40;22.70;97.30
27224;DHT22;14965;50.660;13.226;2023-06-10T14:22:06;22.80;98.20
27224;DHT22;14965;50.660;13.226;2023-06-10T14:24:32;22.60;96.40
27224;DHT22;14965;50.660;13.226;2023-06-10T14:26:58;22.40;97.10
27224;DHT22;14965;50.660;13.226;2023-06-10T14:29:24;22.40;97.90
27224;DHT22;14965;50.660;13.226;2023-06-10T14:31:50;22.40;97.80
27224;DHT22;14965;50.660;13.226;2023-06-10T14:34:16;22.40;98.40
27224;DHT22;14965;50.660;13.226;2023-06-10T14:36:43;22.40;98.50
27224;DHT22;14965;50.660;13.226;2023-06-10T14:39:09;22.60;98.40
27224;DHT22;14965;50.660;13.226;2023-06-10T14:41:34;22.70;98.30
27224;DHT22;14965;50.660;13.226;2023-06-10T14:44:00;22.90;98.40
27224;DHT22;14965;50.660;13.226;2023-06-10T14:46:27;23.10;98.30
27224;DHT22;14965;50.660;13.226;2023-06-10T14:48:53;23.20;98.20
27224;DHT22;14965;50.660;13.226;2023-06-10T14:51:19;23.20;98.10
27224;DHT22;14965;50.660;13.226;2023-06-10T14:53:46;23.10;95.90
27224;DHT22;14965;50.660;13.226;2023-06-10T14:56:12;23.10;96.00
27224;DHT22;14965;50.660;13.226;2023-06-10T14:58:38;23.10;96.40
27224;DHT22;14965;50.660;13.226;2023-06-10T15:01:04;23.20;96.50
27224;DHT22;14965;50.660;13.226;2023-06-10T15:03:30;23.30;96.80
27224;DHT22;14965;50.660;13.226;2023-06-10T15:05:56;23.10;97.30
27224;DHT22;14965;50.660;13.226;2023-06-10T15:08:22;22.90;97.10
27224;DHT22;14965;50.660;13.226;2023-06-10T15:10:49;22.70;97.30
27224;DHT22;14965;50.660;13.226;2023-06-10T15:13:15;22.30;98.00
27224;DHT22;14965;50.660;13.226;2023-06-10T15:15:40;22.20;99.00